sensor_id;sensor_type;location;lat;lon;timestamp;temperature;humidity
30280;DHT22;17097;50.916;5.344;2023-07-22T00:01:29;16.10;99.90
30280;DHT22;17097;50.916;5.344;2023-07-22T00:03:55;16.10;99.90
30280;DHT22;17097;50.916;5.344;2023-07-22T00:06:21;16.10;99.90
30280;DHT22;17097;50.916;5.344;2023-07-22T00:08:47;16.10;99.90
30280;DHT22;17097;50.916;5.344;2023-07-22T00:11:12;16.10;99.90
30280;DHT22;17097;50.916;5.344;2023-07-22T00:13:38;16.10;99.90
30280;DHT22;17097;50.916;5.344;2023-07-22T00:16:04;16.10;99.90
30280;DHT22;17097;50.916;5.344;2023-07-22T00:18:30;16.00;99.90
30280;DHT22;17097;50.916;5.344;2023-07-22T00:20:56;16.10;99.90
30280;DHT22;17097;50.916;5.344;2023-07-22T00:23:23;16.00;99.90
30280;DHT22;17097;50.916;5.344;2023-07-22T00:25:49;16.00;99.90
30280;DHT22;17097;50.916;5.344;2023-07-22T00:28:15;15.90;99.90
30280;DHT22;17097;50.916;5.344;2023-07-22T00:30:42;16.00;99.90
30280;DHT22;17097;50.916;5.344;2023-07-22T00:33:08;16.10;99.90
30280;DHT22;17097;50.916;5.344;2023-07-22T00:35:34;16.00;99.90
30280;DHT22;17097;50.916;5.344;2023-07-22T00:38:01;16.00;99.90
30280;DHT22;17097;50.916;5.344;2023-07-22T00:40:28;16.00;99.90
30280;DHT22;17097;50.916;5.344;2023-07-22T00:42:57;15.90;99.90
30280;DHT22;17097;50.916;5.344;2023-07-22T00:45:23;15.80;99.90
30280;DHT22;17097;50.916;5.344;2023-07-22T00:47:49;15.90;99.90
30280;DHT22;17097;50.916;5.344;2023-07-22T00:50:18;15.90;99.90
30280;DHT22;17097;50.916;5.344;2023-07-22T00:52:44;15.80;99.90
30280;DHT22;17097;50.916;5.344;2023-07-22T00:55:10;15.80;99.90
30280;DHT22;17097;50.916;5.344;2023-07-22T00:57:39;15.80;99.90
30280;DHT22;17097;50.916;5.344;2023-07-22T01:00:08;15.90;99.90
30280;DHT22;17097;50.916;5.344;2023-07-22T01:02:43;15.90;99.90
30280;DHT22;17097;50.916;5.344;2023-07-22T01:05:10;15.90;99.90
30280;DHT22;17097;50.916;5.344;2023-07-22T01:07:37;15.80;99.90
30280;DHT22;17097;50.916;5.344;2023-07-22T01:10:07;15.80;99.90
30280;DHT22;17097;50.916;5.344;2023-07-22T01:12:36;15.70;99.90
30280;DHT22;17097;50.916;5.344;2023-07-22T01:15:04;15.70;99.90
30280;DHT22;17097;50.916;5.344;2023-07-22T01:17:34;15.70;99.90
30280;DHT22;17097;50.916;5.344;2023-07-22T01:20:05;15.70;99.90
30280;DHT22;17097;50.916;5.344;2023-07-22T01:22:33;15.70;99.90
30280;DHT22;17097;50.916;5.344;2023-07-22T01:25:00;15.70;99.90
30280;DHT22;17097;50.916;5.344;2023-07-22T01:27:26;15.70;99.90
30280;DHT22;17097;50.916;5.344;2023-07-22T01:29:53;15.70;99.90
30280;DHT22;17097;50.916;5.344;2023-07-22T01:32:18;15.70;99.90
30280;DHT22;17097;50.916;5.344;2023-07-22T01:34:45;15.70;99.90
30280;DHT22;17097;50.916;5.344;2023-07-22T01:37:11;15.60;99.90
30280;DHT22;17097;50.916;5.344;2023-07-22T01:39:37;15.70;99.90
30280;DHT22;17097;50.916;5.344;2023-07-22T01:42:03;15.60;99.90
30280;DHT22;17097;50.916;5.344;2023-07-22T01:44:30;15.60;99.90
30280;DHT22;17097;50.916;5.344;2023-07-22T01:46:56;15.70;99.90
30280;DHT22;17097;50.916;5.344;2023-07-22T01:49:22;15.70;99.90
30280;DHT22;17097;50.916;5.344;2023-07-22T01:51:50;15.70;99.90
30280;DHT22;17097;50.916;5.344;2023-07-22T01:54:18;15.70;99.90
30280;DHT22;17097;50.916;5.344;2023-07-22T01:56:44;15.70;99.90
30280;DHT22;17097;50.916;5.344;2023-07-22T01:59:09;15.70;99.90
30280;DHT22;17097;50.916;5.344;2023-07-22T02:01:36;15.70;99.90
30280;DHT22;17097;50.916;5.344;2023-07-22T02:04:04;15.70;99.90
30280;DHT22;17097;50.916;5.344;2023-07-22T02:06:31;15.70;99.90
30280;DHT22;17097;50.916;5.344;2023-07-22T02:08:57;15.70;99.90
30280;DHT22;17097;50.916;5.344;2023-07-22T02:11:23;15.70;99.90
30280;DHT22;17097;50.916;5.344;2023-07-22T02:13:49;15.70;99.90
30280;DHT22;17097;50.916;5.344;2023-07-22T02:16:16;15.70;99.90
30280;DHT22;17097;50.916;5.344;2023-07-22T02:18:42;15.70;99.90
30280;DHT22;17097;50.916;5.344;2023-07-22T02:21:07;15.70;99.90
30280;DHT22;17097;50.916;5.344;2023-07-22T02:23:33;15.70;99.90
30280;DHT22;17097;50.916;5.344;2023-07-22T02:26:00;15.70;99.90
30280;DHT22;17097;50.916;5.344;2023-07-22T02:28:26;15.70;99.90
30280;DHT22;17097;50.916;5.344;2023-07-22T02:30:53;15.60;99.90
30280;DHT22;17097;50.916;5.344;2023-07-22T02:33:22;15.60;99.90
30280;DHT22;17097;50.916;5.344;2023-07-22T02:35:50;15.70;99.90
30280;DHT22;17097;50.916;5.344;2023-07-22T02:38:16;15.70;99.90
30280;DHT22;17097;50.916;5.344;2023-07-22T02:40:41;15.70;99.90
30280;DHT22;17097;50.916;5.344;2023-07-22T02:43:07;15.70;99.90
30280;DHT22;17097;50.916;5.344;2023-07-22T02:45:35;15.50;99.90
30280;DHT22;17097;50.916;5.344;2023-07-22T02:48:01;15.50;99.90
30280;DHT22;17097;50.916;5.344;2023-07-22T02:50:27;15.50;99.90
30280;DHT22;17097;50.916;5.344;2023-07-22T02:52:54;15.40;99.90
30280;DHT22;17097;50.916;5.344;2023-07-22T02:55:19;15.40;99.90
30280;DHT22;17097;50.916;5.344;2023-07-22T02:57:46;15.40;99.90
30280;DHT22;17097;50.916;5.344;2023-07-22T03:00:14;15.40;99.90
30280;DHT22;17097;50.916;5.344;2023-07-22T03:02:45;15.40;99.90
30280;DHT22;17097;50.916;5.344;2023-07-22T03:05:11;15.40;99.90
30280;DHT22;17097;50.916;5.344;2023-07-22T03:07:38;15.30;99.90
30280;DHT22;17097;50.916;5.344;2023-07-22T03:10:05;15.30;99.90
30280;DHT22;17097;50.916;5.344;2023-07-22T03:12:31;15.20;99.90
30280;DHT22;17097;50.916;5.344;2023-07-22T03:14:57;15.10;99.90
30280;DHT22;17097;50.916;5.344;2023-07-22T03:17:23;15.10;99.90
30280;DHT22;17097;50.916;5.344;2023-07-22T03:19:50;15.10;99.90
30280;DHT22;17097;50.916;5.344;2023-07-22T03:22:18;15.00;99.90
30280;DHT22;17097;50.916;5.344;2023-07-22T03:24:45;15.00;99.90
30280;DHT22;17097;50.916;5.344;2023-07-22T03:27:12;15.00;99.90
30280;DHT22;17097;50.916;5.344;2023-07-22T03:29:41;15.00;99.90
30280;DHT22;17097;50.916;5.344;2023-07-22T03:32:09;15.00;99.90
30280;DHT22;17097;50.916;5.344;2023-07-22T03:34:35;15.00;99.90
30280;DHT22;17097;50.916;5.344;2023-07-22T03:37:01;15.00;99.90
30280;DHT22;17097;50.916;5.344;2023-07-22T03:39:27;15.00;99.90
30280;DHT22;17097;50.916;5.344;2023-07-22T03:41:53;15.00;99.90
30280;DHT22;17097;50.916;5.344;2023-07-22T03:44:19;14.90;99.90
30280;DHT22;17097;50.916;5.344;2023-07-22T03:46:45;14.90;99.90
30280;DHT22;17097;50.916;5.344;2023-07-22T03:49:13;14.90;99.90
30280;DHT22;17097;50.916;5.344;2023-07-22T03:51:38;14.90;99.90
30280;DHT22;17097;50.916;5.344;2023-07-22T03:54:04;14.90;99.90
30280;DHT22;17097;50.916;5.344;2023-07-22T03:56:32;14.90;99.90
30280;DHT22;17097;50.916;5.344;2023-07-22T03:58:58;14.80;99.90
30280;DHT22;17097;50.916;5.344;2023-07-22T04:01:24;14.70;99.90
30280;DHT22;17097;50.916;5.344;2023-07-22T04:03:52;14.70;99.90
30280;DHT22;17097;50.916;5.344;2023-07-22T04:06:18;14.80;99.90
30280;DHT22;17097;50.916;5.344;2023-07-22T04:08:44;14.90;99.90
30280;DHT22;17097;50.916;5.344;2023-07-22T04:11:10;14.90;99.90
30280;DHT22;17097;50.916;5.344;2023-07-22T04:13:36;14.70;99.90
30280;DHT22;17097;50.916;5.344;2023-07-22T04:16:03;14.80;99.90
30280;DHT22;17097;50.916;5.344;2023-07-22T04:18:29;14.80;99.90
30280;DHT22;17097;50.916;5.344;2023-07-22T04:20:59;14.80;99.90
30280;DHT22;17097;50.916;5.344;2023-07-22T04:23:25;14.80;99.90
30280;DHT22;17097;50.916;5.344;2023-07-22T04:25:51;14.70;99.90
30280;DHT22;17097;50.916;5.344;2023-07-22T04:28:18;14.80;99.90
30280;DHT22;17097;50.916;5.344;2023-07-22T04:30:53;14.80;99.90
30280;DHT22;17097;50.916;5.344;2023-07-22T04:33:19;14.80;99.90
30280;DHT22;17097;50.916;5.344;2023-07-22T04:35:45;14.90;99.90
30280;DHT22;17097;50.916;5.344;2023-07-22T04:38:11;14.80;99.90
30280;DHT22;17097;50.916;5.344;2023-07-22T04:40:37;14.80;99.90
30280;DHT22;17097;50.916;5.344;2023-07-22T04:43:03;14.80;99.90
30280;DHT22;17097;50.916;5.344;2023-07-22T04:45:29;14.80;99.90
30280;DHT22;17097;50.916;5.344;2023-07-22T04:47:55;14.90;99.90
30280;DHT22;17097;50.916;5.344;2023-07-22T04:50:21;14.80;99.90
30280;DHT22;17097;50.916;5.344;2023-07-22T04:52:48;14.80;99.90
30280;DHT22;17097;50.916;5.344;2023-07-22T04:55:18;14.80;99.90
30280;DHT22;17097;50.916;5.344;2023-07-22T04:57:44;14.80;99.90
30280;DHT22;17097;50.916;5.344;2023-07-22T05:00:13;14.80;99.90
30280;DHT22;17097;50.916;5.344;2023-07-22T05:02:42;14.70;99.90
30280;DHT22;17097;50.916;5.344;2023-07-22T05:05:09;14.70;99.90
30280;DHT22;17097;50.916;5.344;2023-07-22T05:07:35;14.80;99.90
30280;DHT22;17097;50.916;5.344;2023-07-22T05:10:04;14.80;99.90
30280;DHT22;17097;50.916;5.344;2023-07-22T05:12:32;14.80;99.90
30280;DHT22;17097;50.916;5.344;2023-07-22T05:15:01;14.90;99.90
30280;DHT22;17097;50.916;5.344;2023-07-22T05:17:27;14.90;99.90
30280;DHT22;17097;50.916;5.344;2023-07-22T05:19:54;15.00;99.90
30280;DHT22;17097;50.916;5.344;2023-07-22T05:22:20;15.00;99.90
30280;DHT22;17097;50.916;5.344;2023-07-22T05:24:46;15.10;99.90
30280;DHT22;17097;50.916;5.344;2023-07-22T05:27:13;15.20;99.90
30280;DHT22;17097;50.916;5.344;2023-07-22T05:29:39;15.20;99.90
30280;DHT22;17097;50.916;5.344;2023-07-22T05:32:05;15.30;99.90
30280;DHT22;17097;50.916;5.344;2023-07-22T05:34:31;15.40;99.90
30280;DHT22;17097;50.916;5.344;2023-07-22T05:36:57;15.40;99.90
30280;DHT22;17097;50.916;5.344;2023-07-22T05:39:23;15.50;99.90
30280;DHT22;17097;50.916;5.344;2023-07-22T05:41:49;15.40;99.90
30280;DHT22;17097;50.916;5.344;2023-07-22T05:44:15;15.40;99.90
30280;DHT22;17097;50.916;5.344;2023-07-22T05:46:44;15.40;99.90
30280;DHT22;17097;50.916;5.344;2023-07-22T05:49:10;15.50;99.90
30280;DHT22;17097;50.916;5.344;2023-07-22T05:51:38;15.60;99.90
30280;DHT22;17097;50.916;5.344;2023-07-22T05:54:04;15.70;99.90
30280;DHT22;17097;50.916;5.344;2023-07-22T05:56:33;15.70;99.90
30280;DHT22;17097;50.916;5.344;2023-07-22T05:58:58;15.70;99.90
30280;DHT22;17097;50.916;5.344;2023-07-22T06:01:24;15.70;99.90
30280;DHT22;17097;50.916;5.344;2023-07-22T06:03:53;15.80;99.90
30280;DHT22;17097;50.916;5.344;2023-07-22T06:06:18;15.90;99.90
30280;DHT22;17097;50.916;5.344;2023-07-22T06:08:44;16.00;99.90
30280;DHT22;17097;50.916;5.344;2023-07-22T06:11:10;16.10;99.90
30280;DHT22;17097;50.916;5.344;2023-07-22T06:13:36;16.20;99.90
30280;DHT22;17097;50.916;5.344;2023-07-22T06:16:01;16.30;99.90
30280;DHT22;17097;50.916;5.344;2023-07-22T06:18:28;16.40;99.90
30280;DHT22;17097;50.916;5.344;2023-07-22T06:20:54;16.50;99.90
30280;DHT22;17097;50.916;5.344;2023-07-22T06:23:19;16.60;99.90
30280;DHT22;17097;50.916;5.344;2023-07-22T06:25:45;16.70;99.90
30280;DHT22;17097;50.916;5.344;2023-07-22T06:28:14;16.70;99.90
30280;DHT22;17097;50.916;5.344;2023-07-22T06:30:39;16.90;99.90
30280;DHT22;17097;50.916;5.344;2023-07-22T06:33:05;17.00;99.90
30280;DHT22;17097;50.916;5.344;2023-07-22T06:35:31;17.10;99.90
30280;DHT22;17097;50.916;5.344;2023-07-22T06:37:56;17.10;99.90
30280;DHT22;17097;50.916;5.344;2023-07-22T06:40:23;17.30;99.90
30280;DHT22;17097;50.916;5.344;2023-07-22T06:42:48;17.30;99.90
30280;DHT22;17097;50.916;5.344;2023-07-22T06:45:14;17.50;99.90
30280;DHT22;17097;50.916;5.344;2023-07-22T06:47:40;17.50;99.90
30280;DHT22;17097;50.916;5.344;2023-07-22T06:50:06;17.70;99.90
30280;DHT22;17097;50.916;5.344;2023-07-22T06:52:32;17.80;99.90
30280;DHT22;17097;50.916;5.344;2023-07-22T06:54:59;17.80;99.90
30280;DHT22;17097;50.916;5.344;2023-07-22T06:57:25;18.00;99.90
30280;DHT22;17097;50.916;5.344;2023-07-22T06:59:53;18.20;99.90
30280;DHT22;17097;50.916;5.344;2023-07-22T07:02:20;18.20;99.90
30280;DHT22;17097;50.916;5.344;2023-07-22T07:04:46;18.20;99.90
30280;DHT22;17097;50.916;5.344;2023-07-22T07:07:13;18.20;99.90
30280;DHT22;17097;50.916;5.344;2023-07-22T07:09:38;18.30;99.90
30280;DHT22;17097;50.916;5.344;2023-07-22T07:12:07;18.50;99.90
30280;DHT22;17097;50.916;5.344;2023-07-22T07:14:34;18.60;99.90
30280;DHT22;17097;50.916;5.344;2023-07-22T07:17:01;18.80;99.90
30280;DHT22;17097;50.916;5.344;2023-07-22T07:19:29;18.90;99.90
30280;DHT22;17097;50.916;5.344;2023-07-22T07:21:55;18.90;99.90
30280;DHT22;17097;50.916;5.344;2023-07-22T07:24:23;19.00;99.90
30280;DHT22;17097;50.916;5.344;2023-07-22T07:26:49;19.00;99.90
30280;DHT22;17097;50.916;5.344;2023-07-22T07:29:15;19.00;99.90
30280;DHT22;17097;50.916;5.344;2023-07-22T07:31:41;18.90;99.90
30280;DHT22;17097;50.916;5.344;2023-07-22T07:34:07;18.90;99.90
30280;DHT22;17097;50.916;5.344;2023-07-22T07:36:33;19.20;99.90
30280;DHT22;17097;50.916;5.344;2023-07-22T07:39:00;19.30;99.90
30280;DHT22;17097;50.916;5.344;2023-07-22T07:41:26;19.30;99.90
30280;DHT22;17097;50.916;5.344;2023-07-22T07:43:52;19.40;99.90
30280;DHT22;17097;50.916;5.344;2023-07-22T07:46:26;19.50;99.90
30280;DHT22;17097;50.916;5.344;2023-07-22T07:48:55;19.60;99.90
30280;DHT22;17097;50.916;5.344;2023-07-22T07:51:24;19.40;99.90
30280;DHT22;17097;50.916;5.344;2023-07-22T07:53:50;19.50;99.90
30280;DHT22;17097;50.916;5.344;2023-07-22T07:56:18;19.70;99.90
30280;DHT22;17097;50.916;5.344;2023-07-22T07:58:45;19.80;99.90
30280;DHT22;17097;50.916;5.344;2023-07-22T08:01:11;19.90;99.90
30280;DHT22;17097;50.916;5.344;2023-07-22T08:03:37;20.00;99.90
30280;DHT22;17097;50.916;5.344;2023-07-22T08:06:03;20.10;99.90
30280;DHT22;17097;50.916;5.344;2023-07-22T08:08:29;20.10;99.90
30280;DHT22;17097;50.916;5.344;2023-07-22T08:11:05;20.10;99.90
30280;DHT22;17097;50.916;5.344;2023-07-22T08:13:31;20.20;99.90
30280;DHT22;17097;50.916;5.344;2023-07-22T08:16:01;20.20;99.90
30280;DHT22;17097;50.916;5.344;2023-07-22T08:18:28;20.20;99.90
30280;DHT22;17097;50.916;5.344;2023-07-22T08:20:55;20.20;99.90
30280;DHT22;17097;50.916;5.344;2023-07-22T08:23:21;20.20;99.90
30280;DHT22;17097;50.916;5.344;2023-07-22T08:25:47;20.10;99.90
30280;DHT22;17097;50.916;5.344;2023-07-22T08:28:17;20.20;99.90
30280;DHT22;17097;50.916;5.344;2023-07-22T08:30:45;20.30;99.90
30280;DHT22;17097;50.916;5.344;2023-07-22T08:33:12;20.30;99.90
30280;DHT22;17097;50.916;5.344;2023-07-22T08:35:38;20.40;99.90
30280;DHT22;17097;50.916;5.344;2023-07-22T08:38:08;20.60;99.90
30280;DHT22;17097;50.916;5.344;2023-07-22T08:40:38;20.70;99.90
30280;DHT22;17097;50.916;5.344;2023-07-22T08:43:05;20.80;99.90
30280;DHT22;17097;50.916;5.344;2023-07-22T08:45:34;20.90;99.90
30280;DHT22;17097;50.916;5.344;2023-07-22T08:48:03;21.00;99.90
30280;DHT22;17097;50.916;5.344;2023-07-22T08:50:46;21.30;99.90
30280;DHT22;17097;50.916;5.344;2023-07-22T08:53:13;21.20;99.90
30280;DHT22;17097;50.916;5.344;2023-07-22T08:55:39;21.20;99.90
30280;DHT22;17097;50.916;5.344;2023-07-22T08:58:08;21.00;99.90
30280;DHT22;17097;50.916;5.344;2023-07-22T09:00:39;20.80;99.90
30280;DHT22;17097;50.916;5.344;2023-07-22T09:03:06;20.90;99.90
30280;DHT22;17097;50.916;5.344;2023-07-22T09:05:33;21.00;99.90
30280;DHT22;17097;50.916;5.344;2023-07-22T09:08:01;21.10;99.90
30280;DHT22;17097;50.916;5.344;2023-07-22T09:10:28;21.00;99.90
30280;DHT22;17097;50.916;5.344;2023-07-22T09:12:54;21.40;99.90
30280;DHT22;17097;50.916;5.344;2023-07-22T09:15:21;21.60;99.90
30280;DHT22;17097;50.916;5.344;2023-07-22T09:17:49;22.20;99.90
30280;DHT22;17097;50.916;5.344;2023-07-22T09:20:15;22.50;99.90
30280;DHT22;17097;50.916;5.344;2023-07-22T09:22:48;22.60;99.90
30280;DHT22;17097;50.916;5.344;2023-07-22T09:25:24;22.70;99.90
30280;DHT22;17097;50.916;5.344;2023-07-22T09:27:52;22.80;99.90
30280;DHT22;17097;50.916;5.344;2023-07-22T09:32:52;23.00;99.90
30280;DHT22;17097;50.916;5.344;2023-07-22T09:35:18;23.20;99.90
30280;DHT22;17097;50.916;5.344;2023-07-22T09:37:45;23.20;99.90
30280;DHT22;17097;50.916;5.344;2023-07-22T09:42:43;23.30;99.90
30280;DHT22;17097;50.916;5.344;2023-07-22T09:45:09;23.30;99.90
30280;DHT22;17097;50.916;5.344;2023-07-22T09:47:42;23.30;99.90
30280;DHT22;17097;50.916;5.344;2023-07-22T09:50:16;23.40;99.90
30280;DHT22;17097;50.916;5.344;2023-07-22T09:55:21;23.70;99.90
30280;DHT22;17097;50.916;5.344;2023-07-22T09:57:53;24.00;99.90
30280;DHT22;17097;50.916;5.344;2023-07-22T10:00:20;24.10;99.90
30280;DHT22;17097;50.916;5.344;2023-07-22T10:02:48;24.30;99.90
30280;DHT22;17097;50.916;5.344;2023-07-22T10:05:18;24.80;99.90
30280;DHT22;17097;50.916;5.344;2023-07-22T10:07:56;24.90;99.90
30280;DHT22;17097;50.916;5.344;2023-07-22T10:10:32;24.80;99.90
30280;DHT22;17097;50.916;5.344;2023-07-22T10:12:58;24.80;99.90
30280;DHT22;17097;50.916;5.344;2023-07-22T10:15:34;24.80;99.90
30280;DHT22;17097;50.916;5.344;2023-07-22T10:18:01;25.30;99.90
30280;DHT22;17097;50.916;5.344;2023-07-22T10:20:28;25.10;99.90
30280;DHT22;17097;50.916;5.344;2023-07-22T10:22:57;25.20;99.60
30280;DHT22;17097;50.916;5.344;2023-07-22T10:25:24;25.30;99.90
30280;DHT22;17097;50.916;5.344;2023-07-22T10:27:53;25.50;99.20
30280;DHT22;17097;50.916;5.344;2023-07-22T10:30:19;25.30;99.90
30280;DHT22;17097;50.916;5.344;2023-07-22T10:32:47;25.50;99.40
30280;DHT22;17097;50.916;5.344;2023-07-22T10:35:34;25.90;99.00
30280;DHT22;17097;50.916;5.344;2023-07-22T10:38:15;26.00;97.10
30280;DHT22;17097;50.916;5.344;2023-07-22T10:43:20;26.20;96.00
30280;DHT22;17097;50.916;5.344;2023-07-22T10:45:50;26.50;95.80
30280;DHT22;17097;50.916;5.344;2023-07-22T10:48:17;26.90;95.70
30280;DHT22;17097;50.916;5.344;2023-07-22T10:50:53;27.10;94.40
30280;DHT22;17097;50.916;5.344;2023-07-22T10:53:28;27.20;93.00
30280;DHT22;17097;50.916;5.344;2023-07-22T11:04:25;26.50;91.20
30280;DHT22;17097;50.916;5.344;2023-07-22T11:06:58;26.40;92.10
30280;DHT22;17097;50.916;5.344;2023-07-22T11:14:32;24.80;94.30
30280;DHT22;17097;50.916;5.344;2023-07-22T11:17:03;24.90;95.00
30280;DHT22;17097;50.916;5.344;2023-07-22T11:19:30;24.70;94.40
30280;DHT22;17097;50.916;5.344;2023-07-22T11:21:56;25.00;95.40
30280;DHT22;17097;50.916;5.344;2023-07-22T11:24:23;25.10;94.30
30280;DHT22;17097;50.916;5.344;2023-07-22T11:26:51;25.10;94.50
30280;DHT22;17097;50.916;5.344;2023-07-22T11:29:17;25.30;93.50
30280;DHT22;17097;50.916;5.344;2023-07-22T11:31:48;25.70;93.00
30280;DHT22;17097;50.916;5.344;2023-07-22T11:34:16;25.70;92.80
30280;DHT22;17097;50.916;5.344;2023-07-22T11:36:42;25.60;92.50
30280;DHT22;17097;50.916;5.344;2023-07-22T11:39:12;25.50;92.90
30280;DHT22;17097;50.916;5.344;2023-07-22T11:41:42;25.50;91.80
30280;DHT22;17097;50.916;5.344;2023-07-22T11:44:17;25.50;92.30
30280;DHT22;17097;50.916;5.344;2023-07-22T11:46:51;25.00;93.10
30280;DHT22;17097;50.916;5.344;2023-07-22T11:54:26;25.00;93.40
30280;DHT22;17097;50.916;5.344;2023-07-22T11:56:52;24.80;92.80
30280;DHT22;17097;50.916;5.344;2023-07-22T11:59:36;24.40;94.30
30280;DHT22;17097;50.916;5.344;2023-07-22T12:02:05;24.30;94.10
30280;DHT22;17097;50.916;5.344;2023-07-22T12:04:32;24.40;93.90
30280;DHT22;17097;50.916;5.344;2023-07-22T12:07:02;24.60;93.40
30280;DHT22;17097;50.916;5.344;2023-07-22T12:09:29;24.80;93.70
30280;DHT22;17097;50.916;5.344;2023-07-22T12:11:57;24.70;91.90
30280;DHT22;17097;50.916;5.344;2023-07-22T12:14:32;24.80;92.00
30280;DHT22;17097;50.916;5.344;2023-07-22T12:17:00;25.10;92.60
30280;DHT22;17097;50.916;5.344;2023-07-22T12:19:28;25.30;92.00
30280;DHT22;17097;50.916;5.344;2023-07-22T12:21:55;25.50;91.00
30280;DHT22;17097;50.916;5.344;2023-07-22T12:24:21;25.50;90.80
30280;DHT22;17097;50.916;5.344;2023-07-22T12:26:47;25.60;92.20
30280;DHT22;17097;50.916;5.344;2023-07-22T12:29:12;25.40;90.90
30280;DHT22;17097;50.916;5.344;2023-07-22T12:31:38;25.70;90.90
30280;DHT22;17097;50.916;5.344;2023-07-22T12:34:06;25.30;90.50
30280;DHT22;17097;50.916;5.344;2023-07-22T12:36:32;25.30;91.00
30280;DHT22;17097;50.916;5.344;2023-07-22T12:38:58;25.50;90.70
30280;DHT22;17097;50.916;5.344;2023-07-22T12:41:23;25.80;90.70
30280;DHT22;17097;50.916;5.344;2023-07-22T12:43:54;26.00;91.90
30280;DHT22;17097;50.916;5.344;2023-07-22T12:46:19;25.90;88.50
30280;DHT22;17097;50.916;5.344;2023-07-22T12:48:45;25.80;88.60
30280;DHT22;17097;50.916;5.344;2023-07-22T12:51:12;25.50;88.90
30280;DHT22;17097;50.916;5.344;2023-07-22T12:53:41;25.70;90.20
30280;DHT22;17097;50.916;5.344;2023-07-22T12:56:07;26.00;90.50
30280;DHT22;17097;50.916;5.344;2023-07-22T12:58:32;26.20;86.60
30280;DHT22;17097;50.916;5.344;2023-07-22T13:01:01;26.20;88.50
30280;DHT22;17097;50.916;5.344;2023-07-22T13:03:27;25.80;88.30
30280;DHT22;17097;50.916;5.344;2023-07-22T13:05:53;25.90;86.30
30280;DHT22;17097;50.916;5.344;2023-07-22T13:08:19;25.90;83.90
30280;DHT22;17097;50.916;5.344;2023-07-22T13:10:44;25.50;85.50
30280;DHT22;17097;50.916;5.344;2023-07-22T13:13:14;25.30;86.30
30280;DHT22;17097;50.916;5.344;2023-07-22T13:15:40;25.00;89.50
30280;DHT22;17097;50.916;5.344;2023-07-22T13:18:06;25.10;86.20
30280;DHT22;17097;50.916;5.344;2023-07-22T13:20:32;25.00;87.50
30280;DHT22;17097;50.916;5.344;2023-07-22T13:22:59;25.30;87.50
30280;DHT22;17097;50.916;5.344;2023-07-22T13:25:25;25.20;87.40
30280;DHT22;17097;50.916;5.344;2023-07-22T13:27:52;25.20;88.90
30280;DHT22;17097;50.916;5.344;2023-07-22T13:30:21;25.40;88.00
30280;DHT22;17097;50.916;5.344;2023-07-22T13:32:50;25.30;87.90
30280;DHT22;17097;50.916;5.344;2023-07-22T13:35:16;25.40;87.20
30280;DHT22;17097;50.916;5.344;2023-07-22T13:37:42;25.20;88.00
30280;DHT22;17097;50.916;5.344;2023-07-22T13:40:08;25.00;87.40
30280;DHT22;17097;50.916;5.344;2023-07-22T13:42:36;24.80;90.20
30280;DHT22;17097;50.916;5.344;2023-07-22T13:45:04;24.70;90.90
30280;DHT22;17097;50.916;5.344;2023-07-22T13:47:31;24.60;90.70
30280;DHT22;17097;50.916;5.344;2023-07-22T13:49:57;24.80;90.80
30280;DHT22;17097;50.916;5.344;2023-07-22T13:52:23;24.70;91.30
30280;DHT22;17097;50.916;5.344;2023-07-22T13:54:48;24.70;91.00
30280;DHT22;17097;50.916;5.344;2023-07-22T13:57:14;24.90;91.60
30280;DHT22;17097;50.916;5.344;2023-07-22T13:59:43;25.00;92.10
30280;DHT22;17097;50.916;5.344;2023-07-22T14:02:08;24.90;92.10
30280;DHT22;17097;50.916;5.344;2023-07-22T14:04:34;25.00;92.70
30280;DHT22;17097;50.916;5.344;2023-07-22T14:07:00;25.00;91.80
30280;DHT22;17097;50.916;5.344;2023-07-22T14:09:26;24.80;90.90
30280;DHT22;17097;50.916;5.344;2023-07-22T14:11:51;24.70;91.20
30280;DHT22;17097;50.916;5.344;2023-07-22T14:14:17;24.80;91.60
30280;DHT22;17097;50.916;5.344;2023-07-22T14:16:43;25.00;90.80
30280;DHT22;17097;50.916;5.344;2023-07-22T14:19:09;24.80;91.10
30280;DHT22;17097;50.916;5.344;2023-07-22T14:21:34;24.80;91.00
30280;DHT22;17097;50.916;5.344;2023-07-22T14:24:00;24.80;90.30
30280;DHT22;17097;50.916;5.344;2023-07-22T14:26:28;24.80;90.80
30280;DHT22;17097;50.916;5.344;2023-07-22T14:28:54;24.70;90.10
30280;DHT22;17097;50.916;5.344;2023-07-22T14:31:20;24.70;89.40
30280;DHT22;17097;50.916;5.344;2023-07-22T14:33:46;24.70;89.80
30280;DHT22;17097;50.916;5.344;2023-07-22T14:36:12;24.80;88.70
30280;DHT22;17097;50.916;5.344;2023-07-22T14:38:38;24.80;89.20
30280;DHT22;17097;50.916;5.344;2023-07-22T14:41:04;24.60;89.80
30280;DHT22;17097;50.916;5.344;2023-07-22T14:43:30;24.80;89.20
30280;DHT22;17097;50.916;5.344;2023-07-22T14:45:55;24.70;86.60
30280;DHT22;17097;50.916;5.344;2023-07-22T14:48:22;24.60;86.10
30280;DHT22;17097;50.916;5.344;2023-07-22T14:50:47;24.40;87.70
30280;DHT22;17097;50.916;5.344;2023-07-22T14:53:13;24.30;88.40
30280;DHT22;17097;50.916;5.344;2023-07-22T14:55:39;24.30;89.70
30280;DHT22;17097;50.916;5.344;2023-07-22T14:58:04;24.50;90.00
30280;DHT22;17097;50.916;5.344;2023-07-22T15:00:30;24.50;85.20
30280;DHT22;17097;50.916;5.344;2023-07-22T15:02:56;24.50;86.50
30280;DHT22;17097;50.916;5.344;2023-07-22T15:05:22;24.40;88.30
30280;DHT22;17097;50.916;5.344;2023-07-22T15:07:48;24.60;87.40
30280;DHT22;17097;50.916;5.344;2023-07-22T15:10:14;24.50;88.00
30280;DHT22;17097;50.916;5.344;2023-07-22T15:12:40;24.50;88.00
30280;DHT22;17097;50.916;5.344;2023-07-22T15:15:11;24.40;87.50
30280;DHT22;17097;50.916;5.344;2023-07-22T15:17:39;24.40;88.80
30280;DHT22;17097;50.916;5.344;2023-07-22T15:20:06;24.20;89.00
30280;DHT22;17097;50.916;5.344;2023-07-22T15:22:32;24.10;89.60
30280;DHT22;17097;50.916;5.344;2023-07-22T15:24:57;24.20;90.00
30280;DHT22;17097;50.916;5.344;2023-07-22T15:27:23;24.20;90.20
30280;DHT22;17097;50.916;5.344;2023-07-22T15:29:49;24.10;90.40
30280;DHT22;17097;50.916;5.344;2023-07-22T15:32:15;24.10;89.30
30280;DHT22;17097;50.916;5.344;2023-07-22T15:34:41;24.10;88.50
30280;DHT22;17097;50.916;5.344;2023-07-22T15:37:09;24.00;90.20
30280;DHT22;17097;50.916;5.344;2023-07-22T15:39:35;23.90;88.30
30280;DHT22;17097;50.916;5.344;2023-07-22T15:42:01;24.00;89.50
30280;DHT22;17097;50.916;5.344;2023-07-22T15:44:26;24.10;90.30
30280;DHT22;17097;50.916;5.344;2023-07-22T15:46:56;24.30;90.50
30280;DHT22;17097;50.916;5.344;2023-07-22T15:49:22;24.40;90.10
30280;DHT22;17097;50.916;5.344;2023-07-22T15:51:48;24.50;89.30
30280;DHT22;17097;50.916;5.344;2023-07-22T15:54:14;24.40;88.90
30280;DHT22;17097;50.916;5.344;2023-07-22T15:56:43;24.10;89.00
30280;DHT22;17097;50.916;5.344;2023-07-22T15:59:09;23.90;90.00